Maple Creek — H8TQ — position and weather

sailwx.info

Track history (hours):
 
Tides and Currents Weather Stations Pressure Air Temp Water Temp Dewpoint Dewpoint Depression Visibility Wind Speed Wind Dir Waves Ship Positions

Maple Creek

Last reported at 2018-Jun-20 10:47 UTC. Time now 2018-Jun-21 19:37 UTC.
Position N 42°34' E 028°24'.

Length 92 m; draft 6.6 m.

Type: Cargo ship. MMSI: 371827000.

Date/timePositionNaut miles runAvg speedWind from/ knotsBaromVisibWave heightAir tempDewpointWater temp
2018-Jun-20 10:47N 42°34' E 028°24'310.4
2018-Jun-20 10:30N 42°31' E 028°26'510.3
2018-Jun-20 10:00N 42°27' E 028°29'1510.4
2018-Jun-20 08:32N 42°13' E 028°38'110.4
2018-Jun-20 08:29N 42°13' E 028°38'910.7
2018-Jun-20 07:40N 42°05' E 028°43'210.7
2018-Jun-20 07:30N 42°03' E 028°45'510.7
2018-Jun-20 07:00N 41°58' E 028°48'  
2018-Jun-12 21:26N 44°03' E 013°29'58 4.5
2018-Jun-12 08:28N 44°27' E 012°16'0 0.0
2018-Jun-12 07:55N 44°27' E 012°16'0 0.0
2018-Jun-11 17:06N 44°27' E 012°16'8 0.5
2018-Jun-11 00:33N 44°30' E 012°26'0 0.0
2018-Jun-11 00:04N 44°30' E 012°26'0 0.0
2018-Jun-10 23:58N 44°30' E 012°26'0 0.0
2018-Jun-10 23:13N 44°30' E 012°26'0 0.0
2018-Jun-10 22:58N 44°30' E 012°26'0 0.0
2018-Jun-10 19:11N 44°30' E 012°27'0 0.0
2018-Jun-10 18:47N 44°30' E 012°26'0 0.9
2018-Jun-10 18:28N 44°30' E 012°27'7 9.3
2018-Jun-10 17:43N 44°30' E 012°37'1510.0
2018-Jun-10 16:10N 44°24' E 012°57'2 7.5
2018-Jun-10 15:54N 44°23' E 012°59'1 2.0
2018-Jun-10 15:15N 44°22' E 013°01'3 9.9
2018-Jun-10 15:00N 44°21' E 013°04'710.0
2018-Jun-10 14:17N 44°18' E 013°13'  
Track history (hours):
 
Tides and Currents Weather Stations Pressure Air Temp Water Temp Dewpoint Dewpoint Depression Visibility Wind Speed Wind Dir Waves Ship Positions

Maple Creek

Last reported at 2018-Jun-20 10:47 UTC. Time now 2018-Jun-21 19:37 UTC.
Position N 42°34' E 028°24'.

Length 92 m; draft 6.6 m.

Type: Cargo ship. MMSI: 371827000.

Date/timePositionNaut miles runAvg speedWind from/ knotsBaromVisibWave heightAir tempDewpointWater temp
2018-Jun-20 10:47N 42°34' E 028°24'310.4
2018-Jun-20 10:30N 42°31' E 028°26'510.3
2018-Jun-20 10:00N 42°27' E 028°29'1510.4
2018-Jun-20 08:32N 42°13' E 028°38'110.4
2018-Jun-20 08:29N 42°13' E 028°38'910.7
2018-Jun-20 07:40N 42°05' E 028°43'210.7
2018-Jun-20 07:30N 42°03' E 028°45'510.7
2018-Jun-20 07:00N 41°58' E 028°48'  
2018-Jun-12 21:26N 44°03' E 013°29'58 4.5
2018-Jun-12 08:28N 44°27' E 012°16'0 0.0
2018-Jun-12 07:55N 44°27' E 012°16'0 0.0
2018-Jun-11 17:06N 44°27' E 012°16'8 0.5
2018-Jun-11 00:33N 44°30' E 012°26'0 0.0
2018-Jun-11 00:04N 44°30' E 012°26'0 0.0
2018-Jun-10 23:58N 44°30' E 012°26'0 0.0
2018-Jun-10 23:13N 44°30' E 012°26'0 0.0
2018-Jun-10 22:58N 44°30' E 012°26'0 0.0
2018-Jun-10 19:11N 44°30' E 012°27'0 0.0
2018-Jun-10 18:47N 44°30' E 012°26'0 0.9
2018-Jun-10 18:28N 44°30' E 012°27'7 9.3
2018-Jun-10 17:43N 44°30' E 012°37'1510.0
2018-Jun-10 16:10N 44°24' E 012°57'2 7.5
2018-Jun-10 15:54N 44°23' E 012°59'1 2.0
2018-Jun-10 15:15N 44°22' E 013°01'3 9.9
2018-Jun-10 15:00N 44°21' E 013°04'710.0
2018-Jun-10 14:17N 44°18' E 013°13'  

Dump ship's entire track history